createdAt,value
2023-04-03T00:02:19.089Z,16.60
2023-04-03T00:04:47.888Z,13.10
2023-04-03T00:07:17.900Z,14.40
2023-04-03T00:09:46.862Z,14.70
2023-04-03T00:12:15.097Z,13.80
2023-04-03T00:14:43.348Z,13.80
2023-04-03T00:17:16.958Z,14.70
2023-04-03T00:19:45.361Z,13.70
2023-04-03T00:22:13.427Z,14.10
2023-04-03T00:24:48.895Z,15.30
2023-04-03T00:27:20.268Z,14.70
2023-04-03T00:29:50.756Z,12.80
2023-04-03T00:32:19.692Z,15.30
2023-04-03T00:34:48.302Z,13.50
2023-04-03T00:37:16.516Z,14.00
2023-04-03T00:39:44.741Z,13.40
2023-04-03T00:42:15.292Z,12.40
2023-04-03T00:44:43.502Z,13.50
2023-04-03T00:47:13.107Z,12.00
2023-04-03T00:49:42.374Z,12.90
2023-04-03T00:52:13.938Z,11.50
2023-04-03T00:54:43.008Z,11.50
2023-04-03T00:57:11.883Z,11.00
2023-04-03T00:59:43.253Z,11.30
2023-04-03T01:02:11.850Z,12.00
2023-04-03T01:04:42.910Z,11.50
2023-04-03T01:07:13.667Z,9.90
2023-04-03T01:09:42.275Z,9.70
2023-04-03T01:12:22.759Z,11.80
2023-04-03T01:14:58.912Z,10.50
2023-04-03T01:17:39.166Z,9.90
2023-04-03T01:20:29.372Z,8.40
2023-04-03T01:23:10.070Z,8.80
2023-04-03T01:25:40.569Z,9.30
2023-04-03T01:28:11.111Z,7.60
2023-04-03T01:31:01.497Z,8.60
2023-04-03T01:33:30.390Z,10.60
2023-04-03T01:35:58.785Z,9.70
2023-04-03T01:38:27.198Z,8.80
2023-04-03T01:40:55.738Z,8.80
2023-04-03T01:43:24.076Z,7.60
2023-04-03T01:45:55.435Z,9.40
2023-04-03T01:48:24.008Z,8.20
2023-04-03T01:50:52.323Z,8.90
2023-04-03T01:53:21.007Z,8.30
2023-04-03T01:55:49.922Z,8.80
2023-04-03T01:58:18.875Z,8.20
2023-04-03T02:00:49.409Z,8.80
2023-04-03T02:03:18.632Z,8.30
2023-04-03T02:05:46.736Z,7.70
2023-04-03T02:08:15.345Z,8.20
2023-04-03T02:10:43.443Z,9.20
2023-04-03T02:13:12.100Z,10.00
2023-04-03T02:15:40.708Z,8.90
2023-04-03T02:18:09.399Z,7.90
2023-04-03T02:20:39.717Z,7.70
2023-04-03T02:23:08.310Z,7.00
2023-04-03T02:25:38.543Z,9.40
2023-04-03T02:28:10.505Z,7.70
2023-04-03T02:30:39.916Z,8.90
2023-04-03T02:33:11.553Z,8.30
2023-04-03T02:35:41.781Z,8.60
2023-04-03T02:38:10.089Z,8.40
2023-04-03T02:40:39.108Z,7.90
2023-04-03T02:43:07.457Z,8.30
2023-04-03T02:45:36.932Z,7.40
2023-04-03T02:48:06.061Z,10.00
2023-04-03T02:50:35.077Z,8.90
2023-04-03T02:53:03.430Z,9.30
2023-04-03T02:55:31.680Z,9.90
2023-04-03T02:58:00.134Z,8.00
2023-04-03T03:00:28.886Z,8.20
2023-04-03T03:02:57.451Z,10.20
2023-04-03T03:05:25.733Z,9.90
2023-04-03T03:07:54.119Z,7.60
2023-04-03T03:10:22.659Z,7.80
2023-04-03T03:12:51.039Z,7.80
2023-04-03T03:15:20.411Z,7.10
2023-04-03T03:17:49.884Z,9.80
2023-04-03T03:20:25.742Z,8.80
2023-04-03T03:22:54.837Z,9.80
2023-04-03T03:25:24.656Z,9.30
2023-04-03T03:27:54.137Z,9.30
2023-04-03T03:30:22.914Z,11.10
2023-04-03T03:32:51.436Z,9.70
2023-04-03T03:35:19.673Z,10.60
2023-04-03T03:37:50.483Z,9.60
2023-04-03T03:40:19.662Z,8.50
2023-04-03T03:42:47.896Z,10.00
2023-04-03T03:45:16.394Z,10.00
2023-04-03T03:47:44.682Z,8.90
2023-04-03T03:50:13.147Z,8.60
2023-04-03T03:52:41.803Z,10.50
2023-04-03T03:55:10.488Z,9.40
2023-04-03T03:57:41.447Z,10.30
2023-04-03T04:00:10.858Z,9.50
2023-04-03T04:02:48.676Z,9.00
2023-04-03T04:05:19.588Z,9.10
2023-04-03T04:07:48.140Z,10.40
2023-04-03T04:10:16.978Z,11.10
2023-04-03T04:12:45.923Z,10.50
2023-04-03T04:15:15.763Z,9.90
2023-04-03T04:17:44.098Z,11.60
2023-04-03T04:20:13.726Z,10.30
2023-04-03T04:22:43.265Z,9.70
2023-04-03T04:25:12.120Z,9.40
2023-04-03T04:27:41.048Z,10.30
2023-04-03T04:30:09.918Z,8.80
2023-04-03T04:32:38.701Z,9.90
2023-04-03T04:35:07.821Z,9.00
2023-04-03T04:37:37.489Z,8.30
2023-04-03T04:40:06.739Z,9.30
2023-04-03T04:42:35.250Z,10.10
2023-04-03T04:45:08.835Z,11.40
2023-04-03T04:47:38.163Z,9.50
2023-04-03T04:50:07.418Z,10.10
2023-04-03T04:52:37.039Z,13.00
2023-04-03T04:55:06.504Z,12.80
2023-04-03T04:57:36.703Z,10.00
2023-04-03T05:00:07.001Z,9.60
2023-04-03T05:02:42.012Z,9.60
2023-04-03T05:05:10.610Z,10.20
2023-04-03T05:07:39.515Z,9.50
2023-04-03T05:10:09.506Z,11.00
2023-04-03T05:12:37.927Z,9.10
2023-04-03T05:15:07.547Z,9.70
2023-04-03T05:17:36.120Z,9.00
2023-04-03T05:20:06.159Z,10.00
2023-04-03T05:22:36.579Z,12.30
2023-04-03T05:25:08.382Z,8.20
2023-04-03T05:27:37.802Z,10.50
2023-04-03T05:30:07.062Z,9.50
2023-04-03T05:32:35.902Z,10.40
2023-04-03T05:35:26.623Z,9.60
2023-04-03T05:37:56.880Z,9.80
2023-04-03T05:40:25.261Z,10.50
2023-04-03T05:42:55.164Z,8.70
2023-04-03T05:45:25.120Z,10.10
2023-04-03T05:47:53.373Z,9.70
2023-04-03T05:50:22.092Z,8.80
2023-04-03T05:52:52.311Z,10.00
2023-04-03T05:55:20.927Z,8.50
2023-04-03T05:57:49.329Z,9.20
2023-04-03T06:00:18.133Z,10.10
2023-04-03T06:02:51.937Z,8.90
2023-04-03T06:05:23.805Z,8.80
2023-04-03T06:07:52.060Z,9.20
2023-04-03T06:10:21.181Z,8.30
2023-04-03T06:12:49.513Z,10.40
2023-04-03T06:15:18.328Z,9.80
2023-04-03T06:17:49.987Z,9.60
2023-04-03T06:20:18.698Z,8.70
2023-04-03T06:22:47.081Z,9.30
2023-04-03T06:25:15.526Z,11.10
2023-04-03T06:27:43.858Z,9.40
2023-04-03T06:30:12.434Z,10.60
2023-04-03T06:32:41.640Z,8.30
2023-04-03T06:35:10.944Z,8.20
2023-04-03T06:37:39.431Z,9.30
2023-04-03T06:40:08.558Z,8.90
2023-04-03T06:42:38.492Z,9.10
2023-04-03T06:45:12.800Z,9.90
2023-04-03T06:47:43.831Z,10.30
2023-04-03T06:50:15.067Z,8.80
2023-04-03T06:52:43.551Z,8.20
2023-04-03T06:55:12.351Z,10.20
2023-04-03T06:57:42.477Z,9.30
2023-04-03T07:00:13.215Z,8.40
2023-04-03T07:02:54.581Z,8.90
2023-04-03T07:05:23.492Z,8.60
2023-04-03T07:07:52.446Z,10.20
2023-04-03T07:10:21.067Z,10.70
2023-04-03T07:12:49.769Z,9.20
2023-04-03T07:15:18.068Z,9.60
2023-04-03T07:17:47.061Z,7.00
2023-04-03T07:20:16.357Z,8.30
2023-04-03T07:22:44.581Z,11.00
2023-04-03T07:25:13.500Z,8.80
2023-04-03T07:27:42.332Z,8.10
2023-04-03T07:30:11.079Z,8.60
2023-04-03T07:32:39.972Z,8.50
2023-04-03T07:35:08.928Z,8.00
2023-04-03T07:37:37.531Z,8.20
2023-04-03T07:40:07.710Z,8.20
2023-04-03T07:42:37.439Z,8.40
2023-04-03T07:45:06.657Z,8.10
2023-04-03T07:47:36.187Z,8.80
2023-04-03T07:50:04.830Z,7.20
2023-04-03T07:52:38.848Z,8.90
2023-04-03T07:55:08.066Z,7.20
2023-04-03T07:57:37.386Z,9.40
2023-04-03T08:00:07.168Z,7.60
2023-04-03T08:02:41.124Z,7.40
2023-04-03T08:05:09.672Z,7.90
2023-04-03T08:07:38.731Z,8.90
2023-04-03T08:10:07.966Z,7.40
2023-04-03T08:12:37.939Z,10.00
2023-04-03T08:15:07.381Z,8.00
2023-04-03T08:17:38.255Z,8.90
2023-04-03T08:20:07.651Z,8.10
2023-04-03T08:22:35.975Z,7.80
2023-04-03T08:25:04.501Z,9.80
2023-04-03T08:27:35.744Z,10.70
2023-04-03T08:30:05.280Z,8.40
2023-04-03T08:32:36.121Z,7.30
2023-04-03T08:35:06.414Z,9.80
2023-04-03T08:37:37.523Z,8.50
2023-04-03T08:40:06.878Z,10.20
2023-04-03T08:42:44.184Z,9.60
2023-04-03T08:47:48.491Z,7.70
2023-04-03T08:50:18.476Z,8.90
2023-04-03T08:52:51.593Z,10.00
2023-04-03T08:55:35.412Z,8.50
2023-04-03T08:58:08.242Z,8.70
2023-04-03T09:00:57.158Z,8.60
2023-04-03T09:03:26.504Z,9.80
2023-04-03T09:05:59.217Z,8.80
2023-04-03T09:08:32.884Z,8.90
2023-04-03T09:11:25.473Z,10.10
2023-04-03T09:13:58.899Z,7.90
2023-04-03T09:16:38.542Z,10.00
2023-04-03T09:19:27.013Z,8.20
2023-04-03T09:21:58.448Z,8.90
2023-04-03T09:24:27.066Z,7.10
2023-04-03T09:27:03.559Z,8.70
2023-04-03T09:29:33.080Z,8.20
2023-04-03T09:32:03.997Z,8.50
2023-04-03T09:34:37.150Z,10.50
2023-04-03T09:37:09.931Z,9.10
2023-04-03T09:39:54.362Z,8.20
2023-04-03T09:42:24.540Z,8.80
2023-04-03T09:45:04.432Z,8.20
2023-04-03T09:47:35.037Z,8.30
2023-04-03T09:50:15.517Z,9.00
2023-04-03T09:52:48.652Z,8.40
2023-04-03T09:55:30.902Z,8.30
2023-04-03T09:58:08.998Z,9.30
2023-04-03T10:00:38.939Z,9.90
2023-04-03T10:03:36.502Z,9.90
2023-04-03T10:06:04.913Z,9.10
2023-04-03T10:08:35.607Z,8.90
2023-04-03T10:11:11.272Z,9.30
2023-04-03T10:13:52.491Z,7.50
2023-04-03T10:16:30.763Z,9.30
2023-04-03T10:19:08.254Z,8.20
2023-04-03T10:21:44.002Z,8.80
2023-04-03T10:24:14.855Z,8.70
2023-04-03T10:26:49.266Z,9.20
2023-04-03T10:29:23.044Z,8.40
2023-04-03T10:31:58.114Z,7.80
2023-04-03T10:34:31.418Z,9.30
2023-04-03T10:37:21.674Z,7.10
2023-04-03T10:40:26.020Z,10.70
2023-04-03T10:43:03.875Z,6.40
2023-04-03T10:46:11.479Z,9.00
2023-04-03T10:48:50.316Z,8.70
2023-04-03T10:51:40.484Z,7.10
2023-04-03T10:54:28.122Z,7.20
2023-04-03T10:57:08.574Z,8.10
2023-04-03T10:59:48.899Z,8.10
2023-04-03T11:02:23.894Z,5.70
2023-04-03T11:05:00.090Z,4.40
2023-04-03T11:10:04.922Z,3.10
2023-04-03T11:12:48.073Z,3.20
2023-04-03T11:15:18.365Z,2.70
2023-04-03T11:17:51.892Z,2.90
2023-04-03T11:20:39.065Z,1.80
2023-04-03T11:23:30.367Z,2.00
2023-04-03T11:26:15.598Z,1.40
2023-04-03T11:28:44.021Z,1.60
2023-04-03T11:31:25.299Z,1.30
2023-04-03T11:34:29.832Z,2.40
2023-04-03T11:37:01.320Z,1.60
2023-04-03T11:39:36.868Z,3.20
2023-04-03T11:42:38.546Z,2.20
2023-04-03T11:45:28.308Z,2.60
2023-04-03T11:48:23.466Z,1.20
2023-04-03T11:50:52.972Z,2.40
2023-04-03T11:53:30.119Z,1.90
2023-04-03T11:59:25.035Z,2.60
2023-04-03T12:01:56.748Z,3.30
2023-04-03T12:04:25.205Z,2.20
2023-04-03T12:07:30.209Z,3.00
2023-04-03T12:09:58.223Z,2.50
2023-04-03T12:12:30.576Z,2.20
2023-04-03T12:15:33.013Z,2.00
2023-04-03T12:17:59.959Z,1.60
2023-04-03T12:20:49.494Z,2.40
2023-04-03T12:24:03.127Z,2.00
2023-04-03T12:26:49.295Z,1.90
2023-04-03T12:29:43.227Z,2.10
2023-04-03T12:32:26.282Z,2.40
2023-04-03T12:35:15.108Z,2.60
2023-04-03T12:38:19.421Z,2.80
2023-04-03T12:41:18.267Z,3.70
2023-04-03T12:44:28.918Z,3.00
2023-04-03T12:46:56.005Z,2.40
2023-04-03T12:49:29.248Z,2.10
2023-04-03T12:51:57.121Z,3.10
2023-04-03T12:54:33.316Z,3.00
2023-04-03T12:57:24.056Z,3.30
2023-04-03T12:59:51.506Z,2.90
2023-04-03T13:02:21.470Z,2.90
2023-04-03T13:04:53.669Z,2.30
2023-04-03T13:07:22.619Z,4.50
2023-04-03T13:09:58.233Z,3.10
2023-04-03T13:12:25.289Z,3.70
2023-04-03T13:14:57.065Z,5.40
2023-04-03T13:17:24.915Z,3.20
2023-04-03T13:19:52.101Z,4.20
2023-04-03T13:22:43.699Z,2.80
2023-04-03T13:25:11.939Z,2.80
2023-04-03T13:27:39.849Z,3.50
2023-04-03T13:30:07.892Z,4.20
2023-04-03T13:32:36.182Z,3.90
2023-04-03T13:35:15.679Z,3.30
2023-04-03T13:37:55.833Z,3.20
2023-04-03T13:43:06.723Z,3.80
2023-04-03T13:45:34.709Z,3.30
2023-04-03T13:50:55.008Z,3.10
2023-04-03T13:53:21.886Z,3.50
2023-04-03T13:55:57.886Z,3.20
2023-04-03T13:58:28.984Z,4.30
2023-04-03T14:01:00.434Z,7.50
2023-04-03T14:03:34.281Z,4.10
2023-04-03T14:06:01.758Z,3.60
2023-04-03T14:08:42.164Z,5.40
2023-04-03T14:11:14.923Z,3.20
2023-04-03T14:13:42.319Z,3.50
2023-04-03T14:16:16.156Z,3.40
2023-04-03T14:18:47.427Z,4.30
2023-04-03T14:21:15.202Z,3.70
2023-04-03T14:23:42.319Z,4.00
2023-04-03T14:26:29.388Z,3.70
2023-04-03T14:28:57.618Z,5.70
2023-04-03T14:31:25.389Z,4.20
2023-04-03T14:33:52.992Z,2.00
2023-04-03T14:36:22.436Z,7.10
2023-04-03T14:38:49.712Z,4.90
2023-04-03T14:41:18.338Z,3.80
2023-04-03T14:43:45.199Z,3.10
2023-04-03T14:46:48.164Z,6.70
2023-04-03T14:49:20.854Z,3.20
2023-04-03T14:51:48.089Z,2.30
2023-04-03T14:54:17.689Z,2.70
2023-04-03T14:56:44.972Z,5.30
2023-04-03T14:59:13.598Z,2.30
2023-04-03T15:01:40.475Z,2.10
2023-04-03T15:04:18.297Z,4.10
2023-04-03T15:06:45.796Z,2.80
2023-04-03T15:09:19.918Z,3.20
2023-04-03T15:11:47.807Z,2.80
2023-04-03T15:14:19.657Z,2.70
2023-04-03T15:16:56.794Z,4.70
2023-04-03T15:19:25.961Z,3.80
2023-04-03T15:21:53.055Z,3.70
2023-04-03T15:26:46.965Z,5.10
2023-04-03T15:29:14.907Z,2.90
2023-04-03T15:31:41.737Z,2.80
2023-04-03T15:34:08.462Z,5.10
2023-04-03T15:36:35.369Z,10.50
2023-04-03T15:39:02.329Z,7.70
2023-04-03T15:41:29.223Z,5.60
2023-04-03T15:43:55.926Z,3.20
2023-04-03T15:46:23.127Z,4.40
2023-04-03T15:48:50.046Z,3.10
2023-04-03T15:51:17.184Z,4.00
2023-04-03T15:53:44.630Z,2.80
2023-04-03T15:56:12.213Z,3.90
2023-04-03T15:58:39.379Z,4.40
2023-04-03T16:01:06.548Z,5.10
2023-04-03T16:03:34.524Z,3.80
2023-04-03T16:06:01.685Z,5.00
2023-04-03T16:08:30.426Z,4.40
2023-04-03T16:10:57.097Z,3.70
2023-04-03T16:15:50.681Z,2.90
2023-04-03T16:18:18.769Z,2.10
2023-04-03T16:20:48.916Z,3.50
2023-04-03T16:23:15.684Z,2.00
2023-04-03T16:25:46.429Z,3.00
2023-04-03T16:28:14.321Z,6.80
2023-04-03T16:30:41.891Z,3.30
2023-04-03T16:33:10.257Z,3.80
2023-04-03T16:35:37.924Z,3.00
2023-04-03T16:38:04.892Z,3.20
2023-04-03T16:40:34.113Z,2.00
2023-04-03T16:43:03.920Z,2.70
2023-04-03T16:45:31.183Z,4.20
2023-04-03T16:47:58.267Z,2.10
2023-04-03T16:50:25.276Z,2.20
2023-04-03T16:52:52.297Z,2.60
2023-04-03T16:55:21.037Z,3.20
2023-04-03T16:57:48.201Z,3.00
2023-04-03T17:00:15.683Z,3.30
2023-04-03T17:02:42.928Z,3.20
2023-04-03T17:05:09.984Z,3.20
2023-04-03T17:07:36.945Z,2.60
2023-04-03T17:10:05.114Z,3.60
2023-04-03T17:12:36.983Z,3.60
2023-04-03T17:15:04.915Z,3.80
2023-04-03T17:17:33.719Z,3.50
2023-04-03T17:20:01.135Z,4.50
2023-04-03T17:22:28.915Z,3.50
2023-04-03T17:24:55.687Z,3.30
2023-04-03T17:27:23.011Z,4.00
2023-04-03T17:29:50.506Z,4.60
2023-04-03T17:32:19.087Z,3.70
2023-04-03T17:34:48.749Z,2.80
2023-04-03T17:37:15.543Z,2.50
2023-04-03T17:39:43.467Z,2.90
2023-04-03T17:42:11.367Z,2.50
2023-04-03T17:44:39.215Z,3.00
2023-04-03T17:47:05.942Z,3.10
2023-04-03T17:49:34.297Z,5.10
2023-04-03T17:52:01.192Z,4.80
2023-04-03T17:54:28.533Z,4.20
2023-04-03T17:56:55.314Z,5.00
2023-04-03T17:59:23.127Z,7.40
2023-04-03T18:01:50.493Z,5.30
2023-04-03T18:04:17.567Z,2.90
2023-04-03T18:06:46.219Z,3.70
2023-04-03T18:09:15.865Z,2.70
2023-04-03T18:11:43.589Z,3.40
2023-04-03T18:14:10.560Z,3.60
2023-04-03T18:16:38.987Z,3.50
2023-04-03T18:19:22.090Z,2.80
2023-04-03T18:21:52.336Z,3.00
2023-04-03T18:24:21.876Z,3.00
2023-04-03T18:26:57.634Z,2.80
2023-04-03T18:29:25.019Z,2.90
2023-04-03T18:31:53.410Z,3.00
2023-04-03T18:34:20.323Z,1.80
2023-04-03T18:36:48.451Z,2.70
2023-04-03T18:39:21.684Z,3.90
2023-04-03T18:41:51.190Z,3.10
2023-04-03T18:44:19.625Z,2.90
2023-04-03T18:46:46.400Z,3.20
2023-04-03T18:51:40.615Z,3.10
2023-04-03T18:54:08.999Z,2.80
2023-04-03T18:56:36.731Z,3.00
2023-04-03T18:59:03.656Z,4.20
2023-04-03T19:01:30.581Z,3.10
2023-04-03T19:03:57.790Z,3.60
2023-04-03T19:08:51.507Z,3.70
2023-04-03T19:11:18.384Z,5.00
2023-04-03T19:14:04.432Z,3.50
2023-04-03T19:16:36.445Z,2.90
2023-04-03T19:19:03.783Z,3.30
2023-04-03T19:21:30.793Z,9.90
2023-04-03T19:23:58.677Z,4.40
2023-04-03T19:26:28.331Z,4.60
2023-04-03T19:28:55.151Z,43.80
2023-04-03T19:33:49.712Z,2.70
2023-04-03T19:36:17.852Z,4.10
2023-04-03T19:38:48.884Z,6.20
2023-04-03T19:41:18.362Z,6.10
2023-04-03T19:43:45.489Z,4.50
2023-04-03T19:46:12.263Z,4.00
2023-04-03T19:48:39.033Z,3.40
2023-04-03T19:51:07.359Z,4.10
2023-04-03T19:53:35.742Z,3.60
2023-04-03T19:56:08.886Z,3.80
2023-04-03T19:58:36.581Z,3.00
2023-04-03T20:01:03.331Z,3.00
2023-04-03T20:03:33.579Z,4.60
2023-04-03T20:06:01.269Z,4.50
2023-04-03T20:08:31.187Z,3.90
2023-04-03T20:10:57.912Z,3.80
2023-04-03T20:13:25.813Z,3.70
2023-04-03T20:18:20.854Z,5.70
2023-04-03T20:20:52.741Z,3.40
2023-04-03T20:23:20.176Z,3.10
2023-04-03T20:25:57.690Z,2.70
2023-04-03T20:28:33.594Z,3.20
2023-04-03T20:31:01.758Z,3.30
2023-04-03T20:33:29.545Z,2.60
2023-04-03T20:35:56.815Z,3.00
2023-04-03T20:38:23.884Z,1.70
2023-04-03T20:40:51.368Z,2.50
2023-04-03T20:43:21.136Z,2.80
2023-04-03T20:45:48.578Z,4.20
2023-04-03T20:48:15.990Z,3.10
2023-04-03T20:50:45.032Z,2.30
2023-04-03T20:53:18.364Z,4.20
2023-04-03T20:55:59.211Z,2.60
2023-04-03T20:58:29.118Z,4.30
2023-04-03T21:00:56.677Z,2.60
2023-04-03T21:03:29.689Z,2.40
2023-04-03T21:06:00.046Z,3.90
2023-04-03T21:09:06.127Z,2.70
2023-04-03T21:12:11.381Z,2.70
2023-04-03T21:15:20.678Z,2.10
2023-04-03T21:18:14.296Z,3.50
2023-04-03T21:20:42.671Z,2.40
2023-04-03T21:23:10.444Z,2.80
2023-04-03T21:28:03.718Z,3.10
2023-04-03T21:30:30.916Z,4.30
2023-04-03T21:33:01.134Z,3.70
2023-04-03T21:35:29.014Z,3.40
2023-04-03T21:37:56.220Z,2.60
2023-04-03T21:40:24.130Z,3.40
2023-04-03T21:42:55.346Z,2.90
2023-04-03T21:45:23.877Z,2.40
2023-04-03T21:47:51.495Z,2.50
2023-04-03T21:50:18.703Z,3.30
2023-04-03T21:52:47.398Z,2.70
2023-04-03T21:55:14.809Z,2.50
2023-04-03T21:57:41.755Z,1.70
2023-04-03T22:00:10.140Z,2.20
2023-04-03T22:02:41.248Z,4.50
2023-04-03T22:05:08.259Z,2.70
2023-04-03T22:07:35.148Z,2.60
2023-04-03T22:10:02.213Z,2.40
2023-04-03T22:12:29.402Z,1.90
2023-04-03T22:14:56.147Z,2.00
2023-04-03T22:17:22.957Z,2.50
2023-04-03T22:19:49.799Z,1.50
2023-04-03T22:22:18.172Z,1.70
2023-04-03T22:24:45.071Z,1.60
2023-04-03T22:27:12.500Z,2.60
2023-04-03T22:29:40.374Z,1.80
2023-04-03T22:32:07.131Z,2.20
2023-04-03T22:34:37.581Z,2.40
2023-04-03T22:37:04.862Z,1.60
2023-04-03T22:39:32.032Z,1.30
2023-04-03T22:42:00.932Z,2.20
2023-04-03T22:44:32.069Z,2.30
2023-04-03T22:47:02.253Z,2.30
2023-04-03T22:49:29.272Z,4.00
2023-04-03T22:54:22.734Z,2.80
2023-04-03T22:56:49.738Z,1.90
2023-04-03T22:59:16.515Z,1.50
2023-04-03T23:01:43.753Z,1.40
2023-04-03T23:04:11.672Z,2.90
2023-04-03T23:06:38.511Z,2.40
2023-04-03T23:09:06.728Z,1.40
2023-04-03T23:11:33.763Z,1.30
2023-04-03T23:14:02.371Z,2.00
2023-04-03T23:16:30.712Z,0.80
2023-04-03T23:18:57.936Z,1.20
2023-04-03T23:21:26.004Z,1.60
2023-04-03T23:23:53.831Z,1.00
2023-04-03T23:28:48.234Z,1.20
2023-04-03T23:31:16.189Z,1.40
2023-04-03T23:33:43.953Z,1.60
2023-04-03T23:36:12.533Z,2.20
2023-04-03T23:38:42.342Z,1.70
2023-04-03T23:41:09.062Z,2.70
2023-04-03T23:46:04.345Z,2.00
2023-04-03T23:48:31.226Z,1.60
2023-04-03T23:50:59.852Z,2.00
2023-04-03T23:53:28.870Z,2.10
2023-04-03T23:55:55.835Z,2.90
2023-04-03T23:58:25.247Z,2.80
